createdAt,value
2022-12-05T00:01:59.096Z,48.83
2022-12-05T00:04:27.243Z,45.17
2022-12-05T00:06:55.406Z,52.20
2022-12-05T00:09:24.906Z,48.07
2022-12-05T00:11:52.927Z,46.53
2022-12-05T00:14:20.967Z,46.93
2022-12-05T00:16:49.011Z,45.90
2022-12-05T00:19:17.380Z,49.30
2022-12-05T00:21:45.700Z,44.37
2022-12-05T00:24:15.766Z,47.57
2022-12-05T00:26:45.898Z,47.57
2022-12-05T00:29:14.114Z,47.77
2022-12-05T00:31:42.695Z,48.27
2022-12-05T00:34:11.361Z,46.80
2022-12-05T00:36:39.719Z,49.13
2022-12-05T00:39:09.730Z,44.27
2022-12-05T00:41:38.626Z,46.00
2022-12-05T00:44:08.345Z,46.33
2022-12-05T00:46:37.493Z,46.17
2022-12-05T00:49:07.183Z,47.63
2022-12-05T00:51:37.961Z,47.33
2022-12-05T00:54:08.822Z,47.47
2022-12-05T00:56:37.407Z,45.70
2022-12-05T00:59:08.855Z,46.57
2022-12-05T01:01:38.802Z,46.57
2022-12-05T01:04:09.755Z,46.30
2022-12-05T01:06:38.534Z,47.33
2022-12-05T01:09:06.946Z,46.73
2022-12-05T01:11:41.036Z,49.30
2022-12-05T01:14:11.745Z,46.57
2022-12-05T01:16:42.142Z,44.43
2022-12-05T01:19:13.324Z,45.10
2022-12-05T01:21:41.814Z,46.57
2022-12-05T01:24:10.778Z,43.93
2022-12-05T01:26:39.091Z,44.73
2022-12-05T01:29:07.525Z,46.97
2022-12-05T01:31:38.720Z,47.23
2022-12-05T01:34:08.863Z,46.40
2022-12-05T01:36:39.595Z,45.97
2022-12-05T01:39:08.633Z,45.13
2022-12-05T01:41:38.975Z,47.70
2022-12-05T01:44:28.374Z,46.87
2022-12-05T01:46:59.111Z,46.90
2022-12-05T01:49:30.480Z,45.10
2022-12-05T01:52:03.706Z,45.87
2022-12-05T01:54:32.135Z,46.50
2022-12-05T01:57:03.798Z,44.20
2022-12-05T01:59:35.598Z,45.30
2022-12-05T02:02:06.315Z,44.27
2022-12-05T02:04:39.683Z,44.97
2022-12-05T02:07:07.913Z,44.37
2022-12-05T02:09:36.613Z,44.60
2022-12-05T02:12:06.271Z,45.30
2022-12-05T02:14:44.751Z,45.07
2022-12-05T02:17:22.476Z,44.73
2022-12-05T02:20:09.591Z,44.10
2022-12-05T02:23:04.954Z,45.13
2022-12-05T02:26:08.588Z,45.17
2022-12-05T02:28:51.998Z,45.50
2022-12-05T02:31:29.267Z,44.53
2022-12-05T02:34:04.454Z,45.37
2022-12-05T02:36:40.892Z,45.90
2022-12-05T02:39:18.317Z,45.70
2022-12-05T02:41:52.258Z,43.93
2022-12-05T02:44:24.615Z,46.70
2022-12-05T02:46:56.892Z,45.50
2022-12-05T02:49:28.280Z,45.03
2022-12-05T02:51:59.828Z,45.83
2022-12-05T02:54:30.843Z,45.23
2022-12-05T02:57:01.288Z,47.10
2022-12-05T02:59:30.084Z,44.90
2022-12-05T03:01:59.806Z,44.63
2022-12-05T03:04:28.387Z,45.30
2022-12-05T03:07:00.911Z,43.93
2022-12-05T03:09:33.286Z,43.77
2022-12-05T03:12:08.076Z,43.00
2022-12-05T03:14:39.906Z,44.30
2022-12-05T03:17:15.396Z,44.00
2022-12-05T03:19:51.027Z,43.77
2022-12-05T03:22:27.713Z,44.07
2022-12-05T03:24:56.810Z,42.50
2022-12-05T03:27:31.076Z,42.97
2022-12-05T03:30:05.873Z,43.30
2022-12-05T03:32:40.759Z,43.00
2022-12-05T03:35:14.434Z,42.40
2022-12-05T03:37:48.798Z,42.73
2022-12-05T03:40:28.858Z,41.57
2022-12-05T03:43:03.882Z,42.27
2022-12-05T03:45:40.305Z,42.57
2022-12-05T03:48:16.074Z,42.60
2022-12-05T03:50:48.324Z,42.30
2022-12-05T03:53:22.294Z,41.27
2022-12-05T03:55:58.215Z,39.13
2022-12-05T03:58:32.434Z,40.97
2022-12-05T04:01:02.863Z,41.03
2022-12-05T04:03:40.662Z,43.30
2022-12-05T04:06:15.348Z,40.80
2022-12-05T04:08:49.001Z,40.30
2022-12-05T04:11:21.013Z,41.47
2022-12-05T04:13:51.527Z,39.10
2022-12-05T04:16:41.541Z,40.80
2022-12-05T04:19:16.114Z,40.60
2022-12-05T04:21:47.593Z,38.67
2022-12-05T04:24:42.309Z,39.93
2022-12-05T04:27:22.294Z,41.30
2022-12-05T04:29:58.808Z,40.60
2022-12-05T04:32:31.770Z,37.57
2022-12-05T04:35:08.419Z,39.77
2022-12-05T04:37:41.683Z,40.67
2022-12-05T04:40:15.566Z,38.77
2022-12-05T04:42:46.826Z,40.87
2022-12-05T04:45:18.310Z,40.70
2022-12-05T04:47:51.890Z,40.50
2022-12-05T04:50:23.327Z,39.50
2022-12-05T04:52:56.718Z,40.73
2022-12-05T04:55:28.089Z,39.07
2022-12-05T04:58:04.121Z,39.77
2022-12-05T05:00:36.333Z,40.53
2022-12-05T05:03:09.910Z,39.10
2022-12-05T05:05:40.691Z,37.53
2022-12-05T05:08:18.261Z,37.80
2022-12-05T05:10:56.339Z,38.90
2022-12-05T05:13:24.342Z,37.70
2022-12-05T05:15:52.518Z,39.70
2022-12-05T05:18:20.502Z,38.90
2022-12-05T05:20:49.954Z,39.00
2022-12-05T05:23:18.041Z,38.03
2022-12-05T05:25:46.337Z,38.73
2022-12-05T05:28:14.484Z,38.10
2022-12-05T05:30:42.914Z,37.43
2022-12-05T05:33:10.859Z,37.50
2022-12-05T05:35:39.294Z,37.37
2022-12-05T05:38:08.837Z,37.97
2022-12-05T05:40:37.760Z,38.87
2022-12-05T05:43:05.832Z,39.23
2022-12-05T05:45:34.149Z,37.40
2022-12-05T05:48:02.541Z,37.50
2022-12-05T05:50:33.608Z,36.30
2022-12-05T05:53:01.687Z,38.00
2022-12-05T05:55:31.141Z,37.80
2022-12-05T05:57:59.237Z,37.87
2022-12-05T06:00:27.387Z,40.27
2022-12-05T06:02:55.496Z,35.67
2022-12-05T06:05:23.791Z,35.93
2022-12-05T06:07:54.068Z,38.03
2022-12-05T06:10:22.007Z,37.27
2022-12-05T06:12:51.724Z,38.90
2022-12-05T06:15:19.839Z,37.50
2022-12-05T06:17:47.804Z,38.67
2022-12-05T06:20:16.251Z,39.87
2022-12-05T06:22:44.513Z,36.63
2022-12-05T06:25:13.019Z,38.13
2022-12-05T06:27:41.062Z,37.13
2022-12-05T06:30:11.795Z,40.83
2022-12-05T06:32:39.718Z,41.53
2022-12-05T06:35:15.516Z,38.70
2022-12-05T06:37:45.289Z,38.43
2022-12-05T06:40:14.106Z,38.90
2022-12-05T06:42:42.320Z,37.90
2022-12-05T06:45:13.230Z,43.17
2022-12-05T06:47:41.387Z,37.03
2022-12-05T06:50:10.563Z,39.30
2022-12-05T06:52:38.755Z,36.97
2022-12-05T06:55:07.914Z,37.27
2022-12-05T06:57:36.336Z,37.60
2022-12-05T07:00:24.648Z,38.50
2022-12-05T07:02:54.686Z,37.77
2022-12-05T07:05:22.769Z,36.97
2022-12-05T07:07:53.149Z,38.10
2022-12-05T07:10:21.251Z,37.53
2022-12-05T07:12:49.692Z,38.37
2022-12-05T07:15:17.900Z,38.57
2022-12-05T07:17:46.227Z,36.47
2022-12-05T07:20:17.964Z,39.13
2022-12-05T07:22:46.383Z,36.13
2022-12-05T07:25:14.477Z,37.30
2022-12-05T07:27:42.665Z,37.73
2022-12-05T07:30:11.258Z,37.27
2022-12-05T07:32:39.452Z,37.40
2022-12-05T07:35:08.256Z,34.80
2022-12-05T07:37:37.791Z,35.47
2022-12-05T07:40:07.415Z,35.80
2022-12-05T07:42:35.662Z,35.60
2022-12-05T07:45:04.238Z,34.67
2022-12-05T07:47:32.744Z,33.90
2022-12-05T07:50:01.106Z,34.80
2022-12-05T07:52:29.899Z,32.77
2022-12-05T07:54:59.781Z,34.30
2022-12-05T07:57:31.736Z,33.87
2022-12-05T08:00:00.233Z,33.30
2022-12-05T08:02:28.778Z,35.03
2022-12-05T08:04:59.602Z,34.93
2022-12-05T08:07:28.499Z,33.30
2022-12-05T08:10:01.260Z,34.07
2022-12-05T08:12:29.425Z,32.20
2022-12-05T08:14:57.791Z,34.30
2022-12-05T08:17:26.766Z,34.20
2022-12-05T08:19:54.912Z,33.70
2022-12-05T08:22:23.085Z,33.27
2022-12-05T08:24:56.092Z,32.90
2022-12-05T08:27:26.104Z,33.50
2022-12-05T08:29:56.129Z,33.20
2022-12-05T08:32:24.315Z,32.23
2022-12-05T08:34:52.721Z,33.03
2022-12-05T08:37:20.759Z,33.50
2022-12-05T08:39:49.864Z,32.87
2022-12-05T08:42:18.001Z,32.70
2022-12-05T08:44:47.499Z,33.37
2022-12-05T08:47:15.802Z,33.80
2022-12-05T08:49:43.935Z,31.87
2022-12-05T08:52:12.143Z,33.17
2022-12-05T08:54:40.621Z,34.67
2022-12-05T08:57:12.870Z,33.17
2022-12-05T08:59:40.936Z,33.20
2022-12-05T09:02:12.422Z,33.17
2022-12-05T09:04:40.751Z,32.13
2022-12-05T09:07:09.468Z,31.60
2022-12-05T09:09:37.623Z,32.30
2022-12-05T09:12:06.597Z,33.13
2022-12-05T09:14:37.550Z,33.43
2022-12-05T09:17:05.926Z,32.53
2022-12-05T09:19:35.582Z,32.13
2022-12-05T09:22:03.853Z,32.60
2022-12-05T09:24:32.044Z,32.00
2022-12-05T09:27:00.100Z,31.40
2022-12-05T09:29:29.484Z,32.10
2022-12-05T09:31:57.964Z,32.37
2022-12-05T09:34:27.139Z,33.50
2022-12-05T09:37:22.869Z,32.63
2022-12-05T09:39:48.550Z,32.70
2022-12-05T09:42:39.782Z,33.30
2022-12-05T09:45:18.094Z,31.93
2022-12-05T09:47:57.455Z,31.93
2022-12-05T09:50:28.504Z,33.10
2022-12-05T09:53:12.880Z,32.90
2022-12-05T09:55:48.472Z,33.47
2022-12-05T09:58:29.906Z,32.33
2022-12-05T10:01:04.563Z,32.17
2022-12-05T10:03:42.292Z,32.93
2022-12-05T10:06:17.324Z,32.40
2022-12-05T10:09:11.266Z,32.67
2022-12-05T10:11:49.090Z,32.77
2022-12-05T10:14:23.735Z,32.30
2022-12-05T10:16:56.520Z,33.50
2022-12-05T10:19:28.259Z,32.07
2022-12-05T10:21:59.297Z,32.30
2022-12-05T10:24:34.091Z,32.00
2022-12-05T10:27:07.207Z,32.43
2022-12-05T10:29:39.483Z,32.20
2022-12-05T10:32:15.892Z,31.43
2022-12-05T10:34:49.353Z,31.17
2022-12-05T10:37:19.761Z,31.57
2022-12-05T10:39:50.516Z,31.47
2022-12-05T10:42:24.747Z,31.23
2022-12-05T10:44:59.315Z,31.30
2022-12-05T10:47:27.781Z,31.83
2022-12-05T10:49:57.844Z,33.33
2022-12-05T10:52:26.494Z,32.33
2022-12-05T10:55:01.887Z,32.60
2022-12-05T10:57:31.791Z,31.70
2022-12-05T11:00:10.457Z,33.00
2022-12-05T11:02:38.982Z,32.33
2022-12-05T11:05:07.744Z,32.80
2022-12-05T11:07:39.101Z,32.87
2022-12-05T11:10:26.655Z,33.00
2022-12-05T11:12:58.452Z,32.20
2022-12-05T11:15:28.301Z,32.47
2022-12-05T11:17:58.071Z,31.93
2022-12-05T11:20:41.388Z,32.47
2022-12-05T11:23:24.779Z,30.67
2022-12-05T11:25:56.613Z,32.03
2022-12-05T11:28:31.925Z,31.73
2022-12-05T11:31:01.977Z,31.73
2022-12-05T11:33:31.145Z,30.93
2022-12-05T11:36:06.965Z,30.60
2022-12-05T11:38:35.336Z,30.97
2022-12-05T11:41:34.094Z,30.27
2022-12-05T11:44:24.470Z,30.23
2022-12-05T11:47:06.921Z,30.70
2022-12-05T11:49:46.418Z,30.63
2022-12-05T11:52:27.349Z,31.20
2022-12-05T11:55:05.373Z,30.73
2022-12-05T11:57:52.732Z,31.43
2022-12-05T12:00:27.300Z,31.23
2022-12-05T12:03:34.435Z,31.37
2022-12-05T12:06:18.059Z,31.20
2022-12-05T12:08:58.004Z,31.10
2022-12-05T12:11:34.102Z,31.83
2022-12-05T12:14:12.883Z,30.33
2022-12-05T12:16:53.526Z,30.60
2022-12-05T12:19:36.838Z,31.17
2022-12-05T12:22:17.127Z,31.87
2022-12-05T12:24:58.444Z,31.50
2022-12-05T12:27:44.772Z,31.33
2022-12-05T12:30:18.861Z,30.83
2022-12-05T12:32:57.788Z,31.20
2022-12-05T12:35:30.811Z,31.73
2022-12-05T12:38:18.235Z,31.77
2022-12-05T12:40:51.752Z,31.90
2022-12-05T12:43:54.561Z,32.80
2022-12-05T12:46:40.412Z,32.07
2022-12-05T12:49:25.492Z,32.40
2022-12-05T12:51:57.624Z,31.73
2022-12-05T12:55:02.934Z,32.37
2022-12-05T12:57:37.050Z,32.97
2022-12-05T13:00:21.325Z,32.83
2022-12-05T13:02:57.711Z,32.63
2022-12-05T13:05:34.757Z,32.40
2022-12-05T13:08:06.509Z,33.03
2022-12-05T13:10:40.798Z,32.87
2022-12-05T13:13:12.452Z,32.47
2022-12-05T13:15:44.754Z,32.47
2022-12-05T13:18:17.805Z,33.57
2022-12-05T13:20:49.256Z,31.63
2022-12-05T13:23:20.740Z,33.03
2022-12-05T13:25:50.790Z,32.83
2022-12-05T13:28:29.494Z,32.17
2022-12-05T13:31:01.781Z,32.33
2022-12-05T13:33:36.611Z,31.60
2022-12-05T13:36:25.792Z,32.10
2022-12-05T13:39:19.912Z,33.10
2022-12-05T13:42:08.543Z,32.87
2022-12-05T13:44:42.640Z,33.33
2022-12-05T13:47:30.653Z,33.87
2022-12-05T13:50:09.850Z,33.83
2022-12-05T13:52:45.233Z,33.13
2022-12-05T13:55:24.397Z,33.67
2022-12-05T13:57:54.766Z,33.33
2022-12-05T14:00:34.783Z,34.87
2022-12-05T14:03:08.575Z,32.83
2022-12-05T14:05:53.323Z,33.33
2022-12-05T14:08:54.911Z,33.53
2022-12-05T14:11:23.183Z,32.60
2022-12-05T14:13:51.789Z,33.63
2022-12-05T14:16:49.872Z,33.40
2022-12-05T14:19:50.112Z,33.93
2022-12-05T14:22:48.869Z,34.03
2022-12-05T14:25:35.297Z,34.17
2022-12-05T14:28:18.318Z,33.53
2022-12-05T14:31:04.275Z,33.20
2022-12-05T14:33:33.286Z,32.87
2022-12-05T14:36:08.926Z,34.27
2022-12-05T14:38:38.978Z,32.23
2022-12-05T14:41:19.297Z,33.23
2022-12-05T14:43:54.708Z,34.37
2022-12-05T14:46:28.381Z,32.73
2022-12-05T14:49:17.300Z,33.27
2022-12-05T14:51:49.178Z,32.83
2022-12-05T14:54:20.782Z,32.17
2022-12-05T14:56:56.382Z,33.97
2022-12-05T14:59:33.686Z,33.27
2022-12-05T15:02:05.515Z,32.43
2022-12-05T15:04:40.894Z,32.57
2022-12-05T15:07:15.384Z,33.03
2022-12-05T15:09:58.718Z,32.37
2022-12-05T15:12:29.919Z,33.07
2022-12-05T15:15:17.481Z,31.93
2022-12-05T15:17:50.680Z,32.57
2022-12-05T15:20:28.229Z,33.00
2022-12-05T15:22:56.813Z,33.40
2022-12-05T15:25:30.097Z,32.30
2022-12-05T15:28:28.820Z,33.90
2022-12-05T15:30:58.392Z,34.93
2022-12-05T15:33:31.897Z,34.10
2022-12-05T15:36:01.324Z,35.10
2022-12-05T15:38:35.652Z,33.77
2022-12-05T15:41:05.612Z,34.93
2022-12-05T15:43:37.509Z,34.13
2022-12-05T15:46:11.151Z,33.97
2022-12-05T15:48:39.428Z,33.60
2022-12-05T15:51:19.387Z,34.27
2022-12-05T15:53:53.322Z,34.13
2022-12-05T15:56:31.749Z,33.70
2022-12-05T15:59:05.819Z,34.67
2022-12-05T16:01:40.061Z,33.97
2022-12-05T16:04:42.188Z,33.53
2022-12-05T16:07:14.998Z,34.13
2022-12-05T16:09:47.614Z,34.57
2022-12-05T16:12:37.454Z,33.53
2022-12-05T16:15:12.601Z,31.93
2022-12-05T16:17:43.614Z,31.83
2022-12-05T16:20:26.547Z,30.77
2022-12-05T16:22:58.919Z,31.93
2022-12-05T16:25:29.367Z,30.20
2022-12-05T16:28:02.791Z,30.77
2022-12-05T16:30:32.316Z,30.47
2022-12-05T16:33:03.954Z,29.60
2022-12-05T16:35:37.778Z,31.80
2022-12-05T16:38:15.695Z,29.00
2022-12-05T16:40:55.264Z,30.53
2022-12-05T16:43:31.916Z,30.43
2022-12-05T16:46:21.845Z,30.77
2022-12-05T16:49:18.413Z,30.27
2022-12-05T16:51:54.078Z,29.13
2022-12-05T16:54:22.132Z,30.37
2022-12-05T16:56:50.380Z,30.40
2022-12-05T16:59:24.720Z,30.93
2022-12-05T17:01:53.004Z,30.20
2022-12-05T17:04:21.324Z,30.93
2022-12-05T17:06:49.482Z,32.60
2022-12-05T17:09:17.860Z,35.20
2022-12-05T17:11:51.525Z,33.30
2022-12-05T17:14:22.392Z,32.80
2022-12-05T17:16:50.704Z,33.77
2022-12-05T17:19:19.332Z,33.13
2022-12-05T17:21:48.344Z,31.87
2022-12-05T17:24:18.657Z,32.27
2022-12-05T17:26:49.078Z,31.83
2022-12-05T17:29:17.352Z,33.27
2022-12-05T17:31:47.031Z,32.33
2022-12-05T17:34:17.294Z,31.47
2022-12-05T17:36:46.022Z,30.27
2022-12-05T17:39:14.248Z,30.27
2022-12-05T17:41:42.620Z,33.43
2022-12-05T17:44:14.021Z,31.03
2022-12-05T17:46:43.703Z,37.27
2022-12-05T17:49:14.886Z,31.30
2022-12-05T17:52:13.585Z,31.57
2022-12-05T17:54:32.461Z,32.13
2022-12-05T17:57:00.756Z,32.47
2022-12-05T17:59:31.743Z,32.77
2022-12-05T18:02:00.101Z,30.20
2022-12-05T18:04:29.828Z,30.63
2022-12-05T18:07:00.708Z,31.20
2022-12-05T18:09:28.943Z,30.67
2022-12-05T18:12:00.410Z,30.60
2022-12-05T18:14:28.914Z,31.20
2022-12-05T18:16:59.524Z,39.10
2022-12-05T18:19:29.171Z,30.93
2022-12-05T18:22:00.211Z,33.50
2022-12-05T18:24:29.947Z,33.53
2022-12-05T18:26:58.562Z,31.57
2022-12-05T18:29:27.163Z,34.90
2022-12-05T18:31:56.579Z,31.73
2022-12-05T18:34:25.246Z,31.30
2022-12-05T18:36:56.609Z,35.80
2022-12-05T18:39:24.967Z,34.20
2022-12-05T18:41:53.133Z,33.10
2022-12-05T18:44:21.445Z,32.70
2022-12-05T18:46:50.120Z,32.40
2022-12-05T18:49:22.854Z,30.97
2022-12-05T18:51:54.917Z,30.77
2022-12-05T18:54:23.553Z,45.03
2022-12-05T18:56:52.832Z,31.43
2022-12-05T18:59:23.308Z,31.30
2022-12-05T19:01:53.159Z,31.87
2022-12-05T19:04:24.116Z,30.87
2022-12-05T19:06:56.445Z,35.57
2022-12-05T19:09:28.979Z,31.27
2022-12-05T19:12:00.979Z,33.70
2022-12-05T19:14:33.066Z,35.50
2022-12-05T19:17:01.465Z,54.63
2022-12-05T19:19:31.388Z,35.30
2022-12-05T19:22:02.333Z,38.13
2022-12-05T19:24:34.793Z,42.90
2022-12-05T19:27:03.226Z,35.87
2022-12-05T19:29:31.340Z,41.00
2022-12-05T19:32:00.059Z,32.57
2022-12-05T19:34:31.251Z,35.43
2022-12-05T19:37:01.215Z,34.70
2022-12-05T19:39:30.773Z,32.07
2022-12-05T19:42:00.237Z,31.27
2022-12-05T19:44:31.489Z,34.23
2022-12-05T19:47:00.586Z,36.93
2022-12-05T19:50:01.163Z,31.27
2022-12-05T19:52:32.981Z,33.67
2022-12-05T19:55:05.241Z,46.73
2022-12-05T19:57:34.317Z,41.77
2022-12-05T20:00:03.104Z,54.00
2022-12-05T20:02:55.986Z,34.47
2022-12-05T20:05:48.019Z,34.50
2022-12-05T20:08:31.458Z,32.80
2022-12-05T20:11:08.538Z,31.67
2022-12-05T20:13:46.884Z,31.50
2022-12-05T20:16:19.179Z,32.37
2022-12-05T20:19:07.925Z,32.10
2022-12-05T20:22:01.944Z,33.13
2022-12-05T20:24:32.175Z,32.53
2022-12-05T20:27:02.193Z,31.43
2022-12-05T20:29:30.727Z,32.57
2022-12-05T20:31:59.221Z,32.40
2022-12-05T20:34:30.287Z,33.17
2022-12-05T20:37:01.144Z,32.30
2022-12-05T20:39:29.772Z,33.57
2022-12-05T20:42:02.759Z,33.07
2022-12-05T20:44:31.174Z,34.30
2022-12-05T20:46:59.594Z,33.40
2022-12-05T20:49:28.027Z,31.93
2022-12-05T20:51:58.366Z,33.50
2022-12-05T20:54:29.754Z,33.07
2022-12-05T20:56:59.376Z,33.27
2022-12-05T20:59:29.994Z,33.07
2022-12-05T21:02:00.319Z,31.73
2022-12-05T21:04:29.962Z,32.10
2022-12-05T21:07:03.769Z,32.83
2022-12-05T21:09:31.985Z,33.47
2022-12-05T21:12:00.083Z,33.27
2022-12-05T21:14:29.662Z,33.37
2022-12-05T21:17:01.009Z,33.13
2022-12-05T21:19:30.635Z,33.97
2022-12-05T21:21:58.596Z,33.63
2022-12-05T21:24:28.443Z,33.77
2022-12-05T21:26:59.459Z,35.27
2022-12-05T21:29:27.599Z,33.93
2022-12-05T21:31:59.710Z,34.33
2022-12-05T21:34:27.697Z,33.53
2022-12-05T21:36:59.264Z,32.43
2022-12-05T21:39:27.407Z,33.30
2022-12-05T21:42:01.669Z,34.80
2022-12-05T21:44:30.067Z,35.33
2022-12-05T21:47:02.750Z,33.20
2022-12-05T21:49:30.816Z,34.87
2022-12-05T21:51:58.971Z,35.30
2022-12-05T21:54:27.448Z,34.20
2022-12-05T21:56:58.047Z,34.47
2022-12-05T21:59:27.298Z,34.37
2022-12-05T22:01:58.211Z,35.07
2022-12-05T22:04:27.758Z,34.20
2022-12-05T22:06:55.813Z,34.00
2022-12-05T22:09:23.978Z,34.40
2022-12-05T22:11:52.128Z,34.23
2022-12-05T22:14:20.222Z,33.83
2022-12-05T22:16:48.406Z,34.20
2022-12-05T22:19:16.419Z,33.60
2022-12-05T22:21:59.713Z,34.70
2022-12-05T22:24:28.299Z,35.43
2022-12-05T22:26:56.620Z,34.87
2022-12-05T22:29:24.789Z,36.20
2022-12-05T22:31:52.983Z,32.57
2022-12-05T22:34:21.548Z,33.93
2022-12-05T22:36:52.282Z,33.27
2022-12-05T22:39:20.191Z,34.20
2022-12-05T22:41:48.211Z,34.63
2022-12-05T22:44:18.548Z,35.57
2022-12-05T22:46:46.656Z,36.47
2022-12-05T22:49:15.004Z,34.67
2022-12-05T22:51:43.075Z,34.37
2022-12-05T22:54:12.727Z,34.27
2022-12-05T22:56:40.842Z,35.20
2022-12-05T22:59:14.713Z,34.70
2022-12-05T23:01:43.078Z,36.77
2022-12-05T23:04:12.589Z,36.17
2022-12-05T23:06:41.154Z,35.60
2022-12-05T23:09:12.136Z,34.37
2022-12-05T23:11:40.611Z,36.30
2022-12-05T23:14:08.850Z,36.07
2022-12-05T23:16:37.163Z,34.97
2022-12-05T23:19:08.432Z,34.87
2022-12-05T23:21:38.366Z,35.07
2022-12-05T23:24:08.707Z,36.50
2022-12-05T23:26:41.794Z,35.83
2022-12-05T23:29:12.159Z,37.40
2022-12-05T23:31:41.030Z,36.47
2022-12-05T23:34:09.603Z,36.80
2022-12-05T23:36:37.941Z,35.80
2022-12-05T23:39:07.298Z,35.13
2022-12-05T23:41:36.173Z,35.13
2022-12-05T23:44:06.058Z,36.27
2022-12-05T23:46:34.293Z,36.23
2022-12-05T23:49:02.546Z,36.60
2022-12-05T23:51:31.726Z,36.97
2022-12-05T23:54:04.669Z,36.87
2022-12-05T23:56:34.604Z,36.77
2022-12-05T23:59:04.165Z,37.23
